Time,TemperatureF,DewpointF,PressureIn,WindDirection,WindDirectionDegrees,WindSpeedMPH,WindSpeedGustMPH,Humidity,HourlyPrecipIn,Conditions,Clouds,dailyrainin,SoftwareType,DateUTC
2012-01-10 06:55:00,14.1,8.8,30.36,SSW,202,0.0,0.0,79,0.00,,---,0.00,VWS V14.01,2012-01-10 13:55:00,
2012-01-10 07:05:00,13.1,8.1,30.46,SSW,209,0.0,0.0,80,0.00,,---,0.00,VWS V14.01,2012-01-10 14:05:00,
2012-01-10 07:06:00,13.1,8.1,30.46,SSW,209,0.0,0.0,80,0.00,,---,0.00,VWS V14.01,2012-01-10 14:06:00,
2012-01-10 07:11:00,13.3,8.6,30.45,SSW,209,0.0,0.0,81,0.00,,---,0.00,VWS V14.01,2012-01-10 14:11:00,
2012-01-10 07:16:00,13.2,8.5,30.45,SSW,209,0.0,0.0,81,0.00,,---,0.00,VWS V14.01,2012-01-10 14:16:00,
2012-01-10 07:21:00,13.0,8.3,30.45,SSW,209,0.0,0.0,81,0.00,,---,0.00,VWS V14.01,2012-01-10 14:21:00,
2012-01-10 07:26:00,12.6,7.6,30.45,SSW,209,0.0,0.0,80,0.00,,---,0.00,VWS V14.01,2012-01-10 14:26:00,
2012-01-10 07:31:00,12.4,7.4,30.45,SSW,209,0.0,0.0,80,0.00,,---,0.00,VWS V14.01,2012-01-10 14:31:00,
2012-01-10 07:36:00,12.2,7.2,30.45,SSW,209,0.0,0.0,80,0.00,,---,0.00,VWS V14.01,2012-01-10 14:36:00,
2012-01-10 07:41:00,12.8,8.4,30.45,SSW,209,0.0,0.0,82,0.00,,---,0.00,VWS V14.01,2012-01-10 14:41:00,
2012-01-10 07:46:00,13.7,9.2,30.43,SSW,209,0.0,0.0,82,0.00,,---,0.00,VWS V14.01,2012-01-10 14:46:00,
2012-01-10 07:51:00,14.1,9.6,30.43,SSW,209,0.0,0.0,82,0.00,,---,0.00,VWS V14.01,2012-01-10 14:51:00,
2012-01-10 07:56:00,14.2,9.4,30.43,SSW,209,0.0,0.0,81,0.00,,---,0.00,VWS V14.01,2012-01-10 14:56:00,
2012-01-10 08:01:00,14.4,9.6,30.43,SSW,209,0.0,0.0,81,0.00,,---,0.00,VWS V14.01,2012-01-10 15:01:00,
2012-01-10 08:06:00,15.5,11.0,30.41,SSW,209,0.0,0.0,82,0.00,,---,0.00,VWS V14.01,2012-01-10 15:06:00,
2012-01-10 08:11:00,16.5,12.0,30.41,SSW,209,0.0,0.0,82,0.00,,---,0.00,VWS V14.01,2012-01-10 15:11:00,
2012-01-10 08:16:00,17.1,12.6,30.39,SSW,209,0.0,0.0,82,0.00,,---,0.00,VWS V14.01,2012-01-10 15:16:00,
2012-01-10 08:21:00,17.1,11.7,30.40,SSW,209,0.0,0.0,79,0.00,,---,0.00,VWS V14.01,2012-01-10 15:21:00,
2012-01-10 08:26:00,16.6,10.7,30.40,SSW,209,0.0,0.0,77,0.00,,---,0.00,VWS V14.01,2012-01-10 15:26:00,
2012-01-10 08:31:00,16.6,10.7,30.40,SSW,209,0.0,0.0,77,0.00,,---,0.00,VWS V14.01,2012-01-10 15:31:00,
2012-01-10 08:36:00,17.0,11.1,30.40,SSW,209,0.0,0.0,77,0.00,,---,0.00,VWS V14.01,2012-01-10 15:36:00,
2012-01-10 08:41:00,17.4,11.7,30.40,SSW,209,0.0,0.0,78,0.00,,---,0.00,VWS V14.01,2012-01-10 15:41:00,
2012-01-10 08:46:00,17.8,11.8,30.40,SSW,209,0.0,0.0,77,0.00,,---,0.00,VWS V14.01,2012-01-10 15:46:00,
2012-01-10 08:51:00,18.2,12.2,30.40,SSW,209,1.0,1.0,77,0.00,,---,0.00,VWS V14.01,2012-01-10 15:51:00,
2012-01-10 08:56:00,18.8,13.1,30.37,SSW,209,0.0,0.0,78,0.00,,---,0.00,VWS V14.01,2012-01-10 15:56:00,
2012-01-10 09:01:00,19.7,13.7,30.39,SSW,209,0.0,0.0,77,0.00,,---,0.00,VWS V14.01,2012-01-10 16:01:00,
2012-01-10 09:06:00,20.9,14.5,30.39,SSW,209,0.0,0.0,76,0.00,,---,0.00,VWS V14.01,2012-01-10 16:06:00,
2012-01-10 09:11:00,21.7,15.3,30.37,SSW,209,0.0,0.0,76,0.00,,---,0.00,VWS V14.01,2012-01-10 16:11:00,
2012-01-10 09:17:00,22.6,15.9,30.36,SSW,209,1.0,1.0,75,0.00,,---,0.00,VWS V14.01,2012-01-10 16:17:00,
2012-01-10 09:22:00,23.2,15.8,30.36,SSW,209,1.0,1.0,73,0.00,,---,0.00,VWS V14.01,2012-01-10 16:22:00,
2012-01-10 09:27:00,23.6,16.2,30.34,SSW,209,0.0,0.0,73,0.00,,---,0.00,VWS V14.01,2012-01-10 16:27:00,
2012-01-10 09:32:00,24.0,16.6,30.34,SSW,209,0.0,0.0,73,0.00,,---,0.00,VWS V14.01,2012-01-10 16:32:00,
2012-01-10 09:37:00,24.4,17.0,30.34,SSW,209,0.0,0.0,73,0.00,,---,0.00,VWS V14.01,2012-01-10 16:37:00,
2012-01-10 09:42:00,24.9,17.5,30.34,SSW,209,0.0,0.0,73,0.00,,---,0.00,VWS V14.01,2012-01-10 16:42:00,
2012-01-10 09:47:00,25.4,17.6,30.34,SSW,209,0.0,0.0,72,0.00,,---,0.00,VWS V14.01,2012-01-10 16:47:00,
2012-01-10 09:52:00,25.9,18.5,30.33,SSW,209,0.0,0.0,73,0.00,,---,0.00,VWS V14.01,2012-01-10 16:52:00,
2012-01-10 09:57:00,26.2,18.4,30.32,SSW,209,0.0,0.0,72,0.00,,---,0.00,VWS V14.01,2012-01-10 16:57:00,
2012-01-10 10:02:00,26.6,18.8,30.32,SSW,209,0.0,0.0,72,0.00,,---,0.00,VWS V14.01,2012-01-10 17:02:00,
2012-01-10 10:07:00,27.2,19.4,30.28,SSW,209,0.0,1.0,72,0.00,,---,0.00,VWS V14.01,2012-01-10 17:07:00,
2012-01-10 10:12:00,27.9,19.7,30.28,SSW,209,0.0,0.0,71,0.00,,---,0.00,VWS V14.01,2012-01-10 17:12:00,
2012-01-10 10:17:00,28.7,20.2,30.26,SSW,209,0.0,0.0,70,0.00,,---,0.00,VWS V14.01,2012-01-10 17:17:00,
2012-01-10 10:22:00,29.4,20.8,30.25,SSW,209,0.0,1.0,70,0.00,,---,0.00,VWS V14.01,2012-01-10 17:22:00,
2012-01-10 10:27:00,30.3,21.7,30.25,SSW,209,0.0,0.0,70,0.00,,---,0.00,VWS V14.01,2012-01-10 17:27:00,
2012-01-10 10:32:00,31.4,22.1,30.23,SSW,209,1.0,2.0,68,0.00,,---,0.00,VWS V14.01,2012-01-10 17:32:00,
2012-01-10 10:37:00,32.1,22.8,30.23,SSW,209,0.0,1.0,68,0.00,,---,0.00,VWS V14.01,2012-01-10 17:37:00,
2012-01-10 10:42:00,33.0,22.5,30.21,SSW,209,1.0,2.0,65,0.00,,---,0.00,VWS V14.01,2012-01-10 17:42:00,
2012-01-10 10:47:00,33.7,22.5,30.21,SSW,209,0.0,1.0,63,0.00,,---,0.00,VWS V14.01,2012-01-10 17:47:00,
2012-01-10 10:52:00,34.6,23.3,30.19,SSW,209,0.0,1.0,63,0.00,,---,0.00,VWS V14.01,2012-01-10 17:52:00,
2012-01-10 10:57:00,35.4,24.1,30.18,SSW,209,0.0,0.0,63,0.00,,---,0.00,VWS V14.01,2012-01-10 17:57:00,
2012-01-10 11:02:00,36.1,24.0,30.19,SSW,209,2.0,2.0,61,0.00,,---,0.00,VWS V14.01,2012-01-10 18:02:00,
2012-01-10 11:07:00,36.9,23.5,30.17,SSW,209,0.0,1.0,58,0.00,,---,0.00,VWS V14.01,2012-01-10 18:07:00,
2012-01-10 11:12:00,37.6,24.2,30.17,SSW,209,0.0,0.0,58,0.00,,---,0.00,VWS V14.01,2012-01-10 18:12:00,
2012-01-10 11:17:00,38.4,24.1,30.16,SSW,209,0.0,1.0,56,0.00,,---,0.00,VWS V14.01,2012-01-10 18:17:00,
2012-01-10 11:22:00,39.5,24.2,30.14,SSW,209,1.0,4.0,54,0.00,,---,0.00,VWS V14.01,2012-01-10 18:22:00,
2012-01-10 11:27:00,39.9,24.2,30.14,SSW,209,2.0,5.0,53,0.00,,---,0.00,VWS V14.01,2012-01-10 18:27:00,
2012-01-10 11:32:00,39.9,25.1,30.13,SSW,209,1.0,2.0,55,0.00,,---,0.00,VWS V14.01,2012-01-10 18:32:00,
2012-01-10 11:37:00,40.2,24.9,30.13,SSW,209,0.0,4.0,54,0.00,,---,0.00,VWS V14.01,2012-01-10 18:37:00,
2012-01-10 11:42:00,40.6,24.8,30.10,SSW,209,0.0,2.0,53,0.00,,---,0.00,VWS V14.01,2012-01-10 18:42:00,
2012-01-10 11:47:00,41.1,25.3,30.10,SSW,209,2.0,2.0,53,0.00,,---,0.00,VWS V14.01,2012-01-10 18:47:00,
2012-01-10 11:52:00,41.6,24.8,30.10,SSW,209,1.0,2.0,51,0.00,,---,0.00,VWS V14.01,2012-01-10 18:52:00,
2012-01-10 11:57:00,42.3,24.5,30.09,SSW,209,2.0,4.0,49,0.00,,---,0.00,VWS V14.01,2012-01-10 18:57:00,
2012-01-10 12:02:00,42.4,25.1,30.12,SSW,209,1.0,4.0,50,0.00,,---,0.00,VWS V14.01,2012-01-10 19:02:00,
2012-01-10 12:07:00,42.2,24.9,30.12,SSW,209,1.0,4.0,50,0.00,,---,0.00,VWS V14.01,2012-01-10 19:07:00,
2012-01-10 12:12:00,42.1,25.3,30.11,SSW,209,1.0,4.0,51,0.00,,---,0.00,VWS V14.01,2012-01-10 19:12:00,
2012-01-10 12:17:00,42.0,25.2,30.10,SSW,209,1.0,5.0,51,0.00,,---,0.00,VWS V14.01,2012-01-10 19:17:00,
2012-01-10 12:22:00,42.7,24.9,30.08,SSW,209,1.0,4.0,49,0.00,,---,0.00,VWS V14.01,2012-01-10 19:22:00,
2012-01-10 12:27:00,42.9,25.6,30.08,SSW,209,0.0,1.0,50,0.00,,---,0.00,VWS V14.01,2012-01-10 19:27:00,
2012-01-10 12:32:00,43.9,25.5,30.07,SSW,209,2.0,5.0,48,0.00,,---,0.00,VWS V14.01,2012-01-10 19:32:00,
2012-01-10 12:37:00,43.9,24.5,30.07,SSW,209,0.0,2.0,46,0.00,,---,0.00,VWS V14.01,2012-01-10 19:37:00,
2012-01-10 12:42:00,44.3,24.8,30.07,SSW,209,0.0,3.0,46,0.00,,---,0.00,VWS V14.01,2012-01-10 19:42:00,
2012-01-10 12:47:00,45.2,24.6,30.05,SSW,209,0.0,3.0,44,0.00,,---,0.00,VWS V14.01,2012-01-10 19:47:00,
2012-01-10 12:52:00,45.4,25.3,30.04,SSW,209,2.0,6.0,45,0.00,,---,0.00,VWS V14.01,2012-01-10 19:52:00,
2012-01-10 12:57:00,44.8,24.8,30.04,SSW,209,4.0,5.0,45,0.00,,---,0.00,VWS V14.01,2012-01-10 19:57:00,
2012-01-10 13:02:00,44.6,25.6,30.03,SSW,209,1.0,1.0,47,0.00,,---,0.00,VWS V14.01,2012-01-10 20:02:00,
2012-01-10 13:07:00,45.0,25.0,30.03,SSW,209,5.0,6.0,45,0.00,,---,0.00,VWS V14.01,2012-01-10 20:07:00,
2012-01-10 13:12:00,45.2,25.1,30.03,SSW,209,6.0,7.0,45,0.00,,---,0.00,VWS V14.01,2012-01-10 20:12:00,
2012-01-10 13:17:00,44.7,25.2,30.02,SSW,209,5.0,5.0,46,0.00,,---,0.00,VWS V14.01,2012-01-10 20:17:00,
2012-01-10 13:22:00,44.9,25.9,30.02,SSW,209,4.0,6.0,47,0.00,,---,0.00,VWS V14.01,2012-01-10 20:22:00,
2012-01-10 13:27:00,44.8,25.3,30.02,SSW,209,4.0,5.0,46,0.00,,---,0.00,VWS V14.01,2012-01-10 20:27:00,
2012-01-10 13:32:00,44.7,26.7,30.02,SSW,209,1.0,9.0,49,0.00,,---,0.00,VWS V14.01,2012-01-10 20:32:00,
2012-01-10 13:37:00,44.7,25.7,30.02,SSW,209,1.0,6.0,47,0.00,,---,0.00,VWS V14.01,2012-01-10 20:37:00,
2012-01-10 13:42:00,45.2,25.1,30.02,SSW,209,3.0,5.0,45,0.00,,---,0.00,VWS V14.01,2012-01-10 20:42:00,
2012-01-10 13:47:00,45.6,25.5,30.00,SSW,209,6.0,6.0,45,0.00,,---,0.00,VWS V14.01,2012-01-10 20:47:00,
2012-01-10 13:52:00,46.1,26.0,30.00,SSW,209,2.0,4.0,45,0.00,,---,0.00,VWS V14.01,2012-01-10 20:52:00,
2012-01-10 13:57:00,46.5,26.9,29.99,SSW,209,2.0,2.0,46,0.00,,---,0.00,VWS V14.01,2012-01-10 20:57:00,
2012-01-10 14:02:00,46.9,24.5,29.97,SSW,209,5.0,6.0,41,0.00,,---,0.00,VWS V14.01,2012-01-10 21:02:00,
2012-01-10 14:07:00,46.8,26.0,29.97,SSW,209,0.0,2.0,44,0.00,,---,0.00,VWS V14.01,2012-01-10 21:07:00,
2012-01-10 14:12:00,47.4,27.7,29.97,SSW,209,0.0,4.0,46,0.00,,---,0.00,VWS V14.01,2012-01-10 21:12:00,
2012-01-10 14:17:00,47.8,25.8,29.95,SSW,209,0.0,6.0,42,0.00,,---,0.00,VWS V14.01,2012-01-10 21:17:00,
2012-01-10 14:23:00,47.8,24.7,29.95,SSW,209,1.0,6.0,40,0.00,,---,0.00,VWS V14.01,2012-01-10 21:23:00,
2012-01-10 14:28:00,47.6,23.9,29.95,SSW,209,4.0,5.0,39,0.00,,---,0.00,VWS V14.01,2012-01-10 21:28:00,
2012-01-10 14:33:00,47.1,24.0,29.96,SSW,209,0.0,5.0,40,0.00,,---,0.00,VWS V14.01,2012-01-10 21:33:00,
2012-01-10 14:38:00,47.2,25.9,29.96,SSW,209,1.0,2.0,43,0.00,,---,0.00,VWS V14.01,2012-01-10 21:38:00,
2012-01-10 14:43:00,47.5,26.1,29.96,SSW,209,0.0,1.0,43,0.00,,---,0.00,VWS V14.01,2012-01-10 21:43:00,
2012-01-10 14:48:00,48.1,27.2,29.94,SSW,209,1.0,3.0,44,0.00,,---,0.00,VWS V14.01,2012-01-10 21:48:00,
2012-01-10 14:53:00,48.7,28.3,29.93,SSW,209,0.0,2.0,45,0.00,,---,0.00,VWS V14.01,2012-01-10 21:53:00,
2012-01-10 14:58:00,49.2,28.2,29.93,SSW,209,0.0,2.0,44,0.00,,---,0.00,VWS V14.01,2012-01-10 21:58:00,
2012-01-10 15:03:00,49.3,27.8,29.97,SSW,209,1.0,1.0,43,0.00,,---,0.00,VWS V14.01,2012-01-10 22:03:00,
2012-01-10 15:08:00,49.5,26.8,29.96,SSW,209,0.0,0.0,41,0.00,,---,0.00,VWS V14.01,2012-01-10 22:08:00,
2012-01-10 15:13:00,50.2,26.8,29.96,SSW,209,0.0,0.0,40,0.00,,---,0.00,VWS V14.01,2012-01-10 22:13:00,
2012-01-10 15:18:00,50.9,26.2,29.95,SSW,209,2.0,5.0,38,0.00,,---,0.00,VWS V14.01,2012-01-10 22:18:00,
2012-01-10 15:23:00,49.8,28.2,29.96,SSW,209,0.0,1.0,43,0.00,,---,0.00,VWS V14.01,2012-01-10 22:23:00,
2012-01-10 15:28:00,49.0,27.5,29.95,SSW,209,0.0,1.0,43,0.00,,---,0.00,VWS V14.01,2012-01-10 22:28:00,
2012-01-10 15:33:00,48.6,27.7,29.95,SSW,209,1.0,2.0,44,0.00,,---,0.00,VWS V14.01,2012-01-10 22:33:00,
2012-01-10 15:38:00,48.6,28.2,29.95,SSW,209,0.0,0.0,45,0.00,,---,0.00,VWS V14.01,2012-01-10 22:38:00,
2012-01-10 15:44:00,48.6,27.1,29.96,SSW,209,1.0,1.0,43,0.00,,---,0.00,VWS V14.01,2012-01-10 22:44:00,
2012-01-10 15:49:00,49.3,26.0,29.96,SSW,209,0.0,0.0,40,0.00,,---,0.00,VWS V14.01,2012-01-10 22:49:00,
2012-01-10 15:54:00,49.8,28.8,29.95,SSW,209,1.0,2.0,44,0.00,,---,0.00,VWS V14.01,2012-01-10 22:54:00,
2012-01-10 15:58:00,48.3,29.0,29.96,SSW,209,0.0,1.0,47,0.00,,---,0.00,VWS V14.01,2012-01-10 22:58:00,
2012-01-10 16:03:00,45.8,29.2,29.99,SSW,209,1.0,4.0,52,0.00,,---,0.00,VWS V14.01,2012-01-10 23:03:00,
2012-01-10 16:09:00,43.7,28.2,30.00,SSW,209,0.0,5.0,54,0.00,,---,0.00,VWS V14.01,2012-01-10 23:09:00,
2012-01-10 16:14:00,42.7,28.1,30.01,SSW,209,0.0,0.0,56,0.00,,---,0.00,VWS V14.01,2012-01-10 23:14:00,
2012-01-10 16:19:00,42.6,28.0,30.01,SSW,209,0.0,0.0,56,0.00,,---,0.00,VWS V14.01,2012-01-10 23:19:00,
2012-01-10 16:24:00,41.5,26.5,30.03,SSW,209,0.0,1.0,55,0.00,,---,0.00,VWS V14.01,2012-01-10 23:24:00,
2012-01-10 16:29:00,40.4,26.4,30.03,SSW,209,0.0,0.0,57,0.00,,---,0.00,VWS V14.01,2012-01-10 23:29:00,
2012-01-10 16:34:00,39.8,26.2,30.05,SSW,209,0.0,1.0,58,0.00,,---,0.00,VWS V14.01,2012-01-10 23:34:00,
2012-01-10 16:39:00,39.2,26.5,30.05,SSW,209,1.0,2.0,60,0.00,,---,0.00,VWS V14.01,2012-01-10 23:39:00,
2012-01-10 16:44:00,38.6,26.7,30.04,SSW,209,0.0,1.0,62,0.00,,---,0.00,VWS V14.01,2012-01-10 23:44:00,
2012-01-10 16:49:00,38.3,26.8,30.06,SSW,209,2.0,2.0,63,0.00,,---,0.00,VWS V14.01,2012-01-10 23:49:00,
2012-01-10 16:54:00,37.7,26.3,30.06,SSW,209,0.0,1.0,63,0.00,,---,0.00,VWS V14.01,2012-01-10 23:54:00,
2012-01-10 16:59:00,37.2,26.2,30.06,SSW,209,0.0,0.0,64,0.00,,---,0.00,VWS V14.01,2012-01-10 23:59:00,
2012-01-10 17:04:00,36.6,25.6,30.04,SSW,209,0.0,0.0,64,0.00,,---,0.00,VWS V14.01,2012-01-11 00:04:00,
2012-01-10 17:09:00,35.3,23.6,30.04,SSW,209,0.0,0.0,62,0.00,,---,0.00,VWS V14.01,2012-01-11 00:09:00,
2012-01-10 17:14:00,33.8,21.4,30.06,SSW,209,0.0,5.0,60,0.00,,---,0.00,VWS V14.01,2012-01-11 00:14:00,
2012-01-10 17:19:00,32.8,20.1,30.09,SSW,209,7.0,7.0,59,0.00,,---,0.00,VWS V14.01,2012-01-11 00:19:00,
2012-01-10 17:24:00,32.1,19.0,30.08,SSW,209,1.0,2.0,58,0.00,,---,0.00,VWS V14.01,2012-01-11 00:24:00,
2012-01-10 17:29:00,31.8,19.1,30.09,SSW,209,0.0,1.0,59,0.00,,---,0.00,VWS V14.01,2012-01-11 00:29:00,
2012-01-10 17:34:00,31.5,19.2,30.09,SSW,209,0.0,1.0,60,0.00,,---,0.00,VWS V14.01,2012-01-11 00:34:00,
2012-01-10 17:39:00,31.0,19.1,30.10,SSW,209,0.0,1.0,61,0.00,,---,0.00,VWS V14.01,2012-01-11 00:39:00,
2012-01-10 17:44:00,30.5,18.7,30.10,SSW,209,0.0,2.0,61,0.00,,---,0.00,VWS V14.01,2012-01-11 00:44:00,
2012-01-10 17:49:00,30.2,18.8,30.10,SSW,209,0.0,3.0,62,0.00,,---,0.00,VWS V14.01,2012-01-11 00:49:00,
2012-01-10 17:54:00,29.9,19.2,30.10,SSW,209,0.0,4.0,64,0.00,,---,0.00,VWS V14.01,2012-01-11 00:54:00,
2012-01-10 17:59:00,29.6,18.9,30.09,SSW,209,2.0,5.0,64,0.00,,---,0.00,VWS V14.01,2012-01-11 00:59:00,
2012-01-10 18:04:00,29.5,18.5,30.13,SSW,209,0.0,5.0,63,0.00,,---,0.00,VWS V14.01,2012-01-11 01:04:00,
2012-01-10 18:09:00,29.2,18.2,30.13,SSW,209,0.0,6.0,63,0.00,,---,0.00,VWS V14.01,2012-01-11 01:09:00,
2012-01-10 18:14:00,29.4,18.0,30.14,SSW,209,5.0,6.0,62,0.00,,---,0.00,VWS V14.01,2012-01-11 01:14:00,
2012-01-10 18:19:00,29.5,17.0,30.13,SSW,209,4.0,5.0,59,0.00,,---,0.00,VWS V14.01,2012-01-11 01:19:00,
2012-01-10 18:24:00,29.1,16.6,30.13,SSW,209,0.0,7.0,59,0.00,,---,0.00,VWS V14.01,2012-01-11 01:24:00,
2012-01-10 18:29:00,28.6,16.5,30.14,SSW,209,1.0,4.0,60,0.00,,---,0.00,VWS V14.01,2012-01-11 01:29:00,
2012-01-10 18:34:00,28.4,16.7,30.16,SSW,209,0.0,1.0,61,0.00,,---,0.00,VWS V14.01,2012-01-11 01:34:00,
2012-01-10 18:39:00,28.1,16.4,30.15,SSW,209,0.0,1.0,61,0.00,,---,0.00,VWS V14.01,2012-01-11 01:39:00,
2012-01-10 18:44:00,28.1,16.4,30.15,SSW,209,0.0,4.0,61,0.00,,---,0.00,VWS V14.01,2012-01-11 01:44:00,
2012-01-10 18:49:00,27.8,16.1,30.14,SSW,209,0.0,1.0,61,0.00,,---,0.00,VWS V14.01,2012-01-11 01:49:00,
2012-01-10 18:54:00,27.4,16.5,30.15,SSW,209,1.0,1.0,63,0.00,,---,0.00,VWS V14.01,2012-01-11 01:54:00,
2012-01-10 18:59:00,27.2,16.6,30.15,SSW,209,2.0,2.0,64,0.00,,---,0.00,VWS V14.01,2012-01-11 01:59:00,
2012-01-10 19:04:00,27.8,16.1,30.12,SSW,209,1.0,2.0,61,0.00,,---,0.00,VWS V14.01,2012-01-11 02:04:00,
2012-01-10 19:09:00,28.4,16.3,30.12,SSW,209,0.0,5.0,60,0.00,,---,0.00,VWS V14.01,2012-01-11 02:09:00,
2012-01-10 19:14:00,28.5,16.0,30.12,SSW,209,1.0,2.0,59,0.00,,---,0.00,VWS V14.01,2012-01-11 02:14:00,
2012-01-10 19:19:00,28.5,16.0,30.12,SSW,209,2.0,7.0,59,0.00,,---,0.00,VWS V14.01,2012-01-11 02:19:00,
2012-01-10 19:24:00,28.7,16.2,30.11,SSW,209,0.0,1.0,59,0.00,,---,0.00,VWS V14.01,2012-01-11 02:24:00,
2012-01-10 19:29:00,28.8,16.3,30.11,SSW,209,1.0,1.0,59,0.00,,---,0.00,VWS V14.01,2012-01-11 02:29:00,
2012-01-10 19:34:00,29.2,16.3,30.11,SSW,209,0.0,5.0,58,0.00,,---,0.00,VWS V14.01,2012-01-11 02:34:00,
2012-01-10 19:39:00,30.0,15.4,30.09,SSW,209,1.0,2.0,54,0.00,,---,0.00,VWS V14.01,2012-01-11 02:39:00,
2012-01-10 19:44:00,31.3,15.3,30.09,SSW,209,0.0,4.0,51,0.00,,---,0.00,VWS V14.01,2012-01-11 02:44:00,
2012-01-10 19:49:00,31.4,14.9,30.09,SSW,209,1.0,4.0,50,0.00,,---,0.00,VWS V14.01,2012-01-11 02:49:00,
2012-01-10 19:55:00,31.1,15.1,30.09,SSW,209,0.0,1.0,51,0.00,,---,0.00,VWS V14.01,2012-01-11 02:55:00,
2012-01-10 20:00:00,30.4,15.3,30.09,SSW,209,0.0,1.0,53,0.00,,---,0.00,VWS V14.01,2012-01-11 03:00:00,
2012-01-10 20:05:00,29.5,15.3,30.03,SSW,209,0.0,5.0,55,0.00,,---,0.00,VWS V14.01,2012-01-11 03:05:00,
2012-01-10 20:10:00,29.0,15.3,30.06,SSW,209,0.0,2.0,56,0.00,,---,0.00,VWS V14.01,2012-01-11 03:10:00,
2012-01-10 20:15:00,29.3,13.9,30.05,SSW,209,0.0,3.0,52,0.00,,---,0.00,VWS V14.01,2012-01-11 03:15:00,
2012-01-10 20:20:00,31.1,14.6,30.02,SSW,209,1.0,4.0,50,0.00,,---,0.00,VWS V14.01,2012-01-11 03:20:00,
2012-01-10 20:25:00,33.1,14.1,30.01,SSW,209,2.0,2.0,45,0.00,,---,0.00,VWS V14.01,2012-01-11 03:25:00,
2012-01-10 20:30:00,34.4,14.2,29.99,SSW,209,0.0,2.0,43,0.00,,---,0.00,VWS V14.01,2012-01-11 03:30:00,
2012-01-10 20:35:00,34.4,14.2,29.99,SSW,209,0.0,2.0,43,0.00,,---,0.00,VWS V14.01,2012-01-11 03:35:00,
2012-01-10 20:40:00,34.4,13.7,29.99,SSW,209,0.0,2.0,42,0.00,,---,0.00,VWS V14.01,2012-01-11 03:40:00,
2012-01-10 20:45:00,34.4,13.7,29.99,SSW,209,0.0,3.0,42,0.00,,---,0.00,VWS V14.01,2012-01-11 03:45:00,
2012-01-10 20:46:00,34.4,13.7,29.99,SSW,209,1.0,1.0,42,0.00,,---,0.00,VWS V14.01,2012-01-11 03:46:00,
2012-01-10 20:51:00,33.7,14.1,30.00,SSW,209,0.0,1.0,44,0.00,,---,0.00,VWS V14.01,2012-01-11 03:51:00,
2012-01-10 20:56:00,33.1,13.6,30.01,SSW,209,0.0,0.0,44,0.00,,---,0.00,VWS V14.01,2012-01-11 03:56:00,
2012-01-10 21:01:00,33.4,13.3,30.01,SSW,209,1.0,1.0,43,0.00,,---,0.00,VWS V14.01,2012-01-11 04:01:00,
2012-01-10 21:06:00,33.2,13.7,29.95,SSW,209,0.0,0.0,44,0.00,,---,0.00,VWS V14.01,2012-01-11 04:06:00,
2012-01-10 21:11:00,32.9,13.4,29.95,SSW,209,0.0,1.0,44,0.00,,---,0.00,VWS V14.01,2012-01-11 04:11:00,
2012-01-10 21:16:00,34.5,13.2,29.95,SSW,209,2.0,4.0,41,0.00,,---,0.00,VWS V14.01,2012-01-11 04:16:00,